Time;durP1;ratioP1;P1;durP2;ratioP2;P2;SDS_P1;SDS_P2;PMS_P1;PMS_P2;Temp;Humidity;BMP_temperature;BMP_pressure;BME280_temperature;BME280_humidity;BME280_pressure;Samples;Min_cycle;Max_cycle;Signal;HPM_P1;HPM_P2
2022/09/26 00:00:35;;;;;;;;;;;17.70;65.70;;;;;;5144530;27;19959;-71
2022/09/26 00:03:01;;;;;;;;;;;17.70;65.70;;;;;;5145130;27;20353;-71
2022/09/26 00:05:27;;;;;;;;;;;17.70;65.70;;;;;;5146188;27;19903;-71
2022/09/26 00:07:52;;;;;;;;;;;17.70;65.70;;;;;;5143302;27;19907;-71
2022/09/26 00:10:18;;;;;;;;;;;17.70;65.70;;;;;;5145020;27;19986;-71
2022/09/26 00:12:44;;;;;;;;;;;17.70;65.80;;;;;;5144355;27;20349;-71
2022/09/26 00:15:10;;;;;;;;;;;17.70;65.80;;;;;;5146058;27;20373;-71
2022/09/26 00:17:36;;;;;;;;;;;17.70;65.80;;;;;;5144671;27;19903;-71
2022/09/26 00:20:01;;;;;;;;;;;17.70;65.90;;;;;;5144499;27;20301;-71
2022/09/26 00:22:27;;;;;;;;;;;17.60;65.80;;;;;;5145773;27;20341;-71
2022/09/26 00:24:53;;;;;;;;;;;17.60;65.80;;;;;;5143832;27;20358;-71
2022/09/26 00:27:19;;;;;;;;;;;17.60;65.90;;;;;;5126321;27;19903;-71
2022/09/26 00:29:45;;;;;;;;;;;17.60;65.90;;;;;;5145691;27;19930;-71
2022/09/26 00:32:11;;;;;;;;;;;17.60;65.90;;;;;;5139912;27;20366;-70
2022/09/26 00:34:36;;;;;;;;;;;17.60;66.00;;;;;;5149099;27;20345;-71
2022/09/26 00:37:02;;;;;;;;;;;17.60;66.00;;;;;;5136884;27;19910;-71
2022/09/26 00:39:27;;;;;;;;;;;17.60;66.10;;;;;;5155433;27;19903;-71
2022/09/26 00:41:53;;;;;;;;;;;17.60;66.10;;;;;;5155304;27;19907;-71
2022/09/26 00:44:37;;;;;;;;;;;17.50;66.00;;;;;;5155410;27;19903;-70
2022/09/26 00:47:04;;;;;;;;;;;17.50;66.00;;;;;;5155354;27;19947;-71
2022/09/26 00:49:37;;;;;;;;;;;17.50;66.10;;;;;;5155325;27;20315;-71
2022/09/26 00:52:11;;;;;;;;;;;17.50;66.10;;;;;;5155256;27;20002;-70
2022/09/26 00:54:38;;;;;;;;;;;17.50;66.10;;;;;;5147462;27;20002;-71
2022/09/26 00:57:07;;;;;;;;;;;17.50;66.20;;;;;;5155002;27;19917;-71
2022/09/26 00:59:34;;;;;;;;;;;17.50;66.30;;;;;;5155022;27;19903;-70
2022/09/26 01:02:00;;;;;;;;;;;17.50;66.40;;;;;;5154880;27;19922;-71
2022/09/26 01:04:27;;;;;;;;;;;17.50;66.50;;;;;;5154955;27;19910;-70
2022/09/26 01:06:55;;;;;;;;;;;17.50;66.50;;;;;;5154937;27;19968;-70
2022/09/26 01:09:20;;;;;;;;;;;17.50;66.60;;;;;;5147397;27;19903;-71
2022/09/26 01:11:46;;;;;;;;;;;17.50;66.70;;;;;;5134322;28;19952;-71
2022/09/26 01:14:12;;;;;;;;;;;17.50;66.70;;;;;;5134306;28;19903;-72
2022/09/26 01:16:39;;;;;;;;;;;17.60;66.70;;;;;;5134275;28;19903;-72
2022/09/26 01:19:11;;;;;;;;;;;17.60;66.80;;;;;;5134300;28;19907;-71
2022/09/26 01:21:40;;;;;;;;;;;17.60;66.70;;;;;;5134181;28;19930;-71
2022/09/26 01:24:12;;;;;;;;;;;17.60;66.70;;;;;;5134064;27;19911;-71
2022/09/26 01:26:56;;;;;;;;;;;17.70;66.80;;;;;;5115754;28;20377;-71
2022/09/26 01:29:42;;;;;;;;;;;17.70;66.80;;;;;;5134025;27;19908;-71
2022/09/26 01:32:48;;;;;;;;;;;17.70;66.70;;;;;;5133980;28;19910;-71
2022/09/26 01:35:33;;;;;;;;;;;17.70;66.70;;;;;;5134412;27;19965;-71
2022/09/26 01:37:58;;;;;;;;;;;17.70;66.60;;;;;;5138240;27;19914;-71
2022/09/26 01:40:24;;;;;;;;;;;17.70;66.60;;;;;;5138150;27;20298;-71
2022/09/26 01:43:08;;;;;;;;;;;17.60;66.40;;;;;;5138070;27;20385;-71
2022/09/26 01:45:52;;;;;;;;;;;17.60;66.40;;;;;;5138091;27;20010;-71
2022/09/26 01:48:20;;;;;;;;;;;17.60;66.50;;;;;;5119640;27;19933;-71
2022/09/26 01:50:51;;;;;;;;;;;17.60;66.50;;;;;;5137953;27;19913;-71
2022/09/26 01:53:16;;;;;;;;;;;17.50;66.40;;;;;;5139320;27;20396;-71
2022/09/26 01:55:50;;;;;;;;;;;17.50;66.50;;;;;;5137768;27;19908;-71
2022/09/26 01:58:18;;;;;;;;;;;17.50;66.50;;;;;;5137560;27;19904;-71
2022/09/26 02:00:46;;;;;;;;;;;17.50;66.50;;;;;;5137714;27;19979;-71
2022/09/26 02:03:14;;;;;;;;;;;17.50;66.50;;;;;;5137749;27;19907;-71
2022/09/26 02:05:46;;;;;;;;;;;17.50;66.60;;;;;;5137759;27;19903;-71
2022/09/26 02:08:23;;;;;;;;;;;17.50;66.60;;;;;;5137645;27;19951;-71
2022/09/26 02:10:51;;;;;;;;;;;17.40;66.70;;;;;;5137548;27;19946;-70
2022/09/26 02:13:40;;;;;;;;;;;17.40;66.70;;;;;;5119036;27;19998;-71
2022/09/26 02:16:07;;;;;;;;;;;17.40;66.80;;;;;;5137337;27;19903;-71
2022/09/26 02:18:39;;;;;;;;;;;17.40;66.90;;;;;;5137246;27;20040;-71
2022/09/26 02:21:31;;;;;;;;;;;17.40;66.90;;;;;;5137111;27;20443;-71
2022/09/26 02:23:57;;;;;;;;;;;17.40;67.00;;;;;;5133001;27;19903;-71
2022/09/26 02:26:22;;;;;;;;;;;17.40;67.00;;;;;;5137115;27;20374;-71
2022/09/26 02:28:48;;;;;;;;;;;17.40;67.00;;;;;;5136926;27;19910;-71
2022/09/26 02:31:19;;;;;;;;;;;17.40;67.00;;;;;;5136917;27;20365;-71
2022/09/26 02:33:47;;;;;;;;;;;17.40;67.10;;;;;;5136723;27;20014;-71
2022/09/26 02:36:14;;;;;;;;;;;17.40;67.20;;;;;;5118543;27;20274;-71
2022/09/26 02:38:39;;;;;;;;;;;17.40;67.10;;;;;;5118513;27;19948;-72
2022/09/26 02:41:12;;;;;;;;;;;17.40;67.10;;;;;;5136808;27;19911;-71
2022/09/26 02:43:42;;;;;;;;;;;17.40;67.10;;;;;;5136895;27;19939;-71
2022/09/26 02:46:16;;;;;;;;;;;17.40;67.20;;;;;;5118470;27;19910;-71
2022/09/26 02:48:45;;;;;;;;;;;17.40;67.10;;;;;;5136775;27;20005;-71
2022/09/26 02:51:11;;;;;;;;;;;17.40;67.20;;;;;;5136705;27;19949;-71
2022/09/26 02:53:48;;;;;;;;;;;17.40;67.20;;;;;;5136626;27;19943;-71
2022/09/26 02:56:26;;;;;;;;;;;17.40;67.20;;;;;;5118295;27;19903;-71
2022/09/26 02:58:58;;;;;;;;;;;17.40;67.30;;;;;;5136431;27;19907;-70
2022/09/26 03:01:28;;;;;;;;;;;17.40;67.50;;;;;;5136403;27;19911;-70
2022/09/26 03:04:04;;;;;;;;;;;17.40;67.50;;;;;;5136337;27;19957;-71
2022/09/26 03:06:34;;;;;;;;;;;17.40;67.70;;;;;;5117792;27;19956;-70
2022/09/26 03:09:00;;;;;;;;;;;17.40;68.50;;;;;;5136338;27;19910;-70
2022/09/26 03:11:27;;;;;;;;;;;17.40;67.70;;;;;;5136233;27;19910;-71
2022/09/26 03:13:54;;;;;;;;;;;17.30;67.70;;;;;;5136193;27;20364;-70
2022/09/26 03:16:20;;;;;;;;;;;17.30;67.70;;;;;;5136045;27;19903;-70
2022/09/26 03:19:07;;;;;;;;;;;17.30;67.70;;;;;;5117669;27;19903;-71
2022/09/26 03:21:33;;;;;;;;;;;17.30;67.80;;;;;;5135979;27;19907;-70
2022/09/26 03:23:58;;;;;;;;;;;17.30;67.80;;;;;;5135938;27;19910;-70
2022/09/26 03:26:26;;;;;;;;;;;17.30;67.90;;;;;;5135928;27;19947;-71
2022/09/26 03:28:55;;;;;;;;;;;17.30;67.90;;;;;;5144171;27;19907;-70
2022/09/26 03:31:21;;;;;;;;;;;17.30;67.90;;;;;;5137963;27;19918;-71
2022/09/26 03:33:47;;;;;;;;;;;17.30;67.90;;;;;;5156320;27;19921;-71
2022/09/26 03:36:13;;;;;;;;;;;17.30;68.00;;;;;;5137772;27;19903;-71
2022/09/26 03:38:38;;;;;;;;;;;17.30;68.00;;;;;;5156486;27;19952;-71
2022/09/26 03:41:04;;;;;;;;;;;17.30;68.00;;;;;;5156406;27;19994;-70
2022/09/26 03:43:30;;;;;;;;;;;17.30;68.10;;;;;;5156471;27;19903;-70
2022/09/26 03:45:56;;;;;;;;;;;17.30;68.10;;;;;;5156315;27;20364;-70
2022/09/26 03:48:22;;;;;;;;;;;17.40;68.20;;;;;;5156240;27;19903;-70
2022/09/26 03:50:47;;;;;;;;;;;17.40;68.20;;;;;;5156213;27;19910;-70
2022/09/26 03:53:13;;;;;;;;;;;17.40;68.20;;;;;;5142863;27;20331;-70
2022/09/26 03:55:39;;;;;;;;;;;17.40;68.30;;;;;;5135499;27;19910;-70
2022/09/26 03:58:05;;;;;;;;;;;17.40;68.30;;;;;;5134660;27;19911;-70
2022/09/26 04:00:30;;;;;;;;;;;17.40;68.20;;;;;;5116721;27;19952;-70
2022/09/26 04:02:58;;;;;;;;;;;17.40;68.20;;;;;;5135162;27;19999;-71
2022/09/26 04:05:24;;;;;;;;;;;17.40;68.20;;;;;;5135178;27;19904;-70
2022/09/26 04:07:49;;;;;;;;;;;17.50;68.30;;;;;;5135299;27;19910;-70
2022/09/26 04:10:15;;;;;;;;;;;17.40;68.30;;;;;;5116794;27;19968;-70
2022/09/26 04:12:43;;;;;;;;;;;17.40;68.20;;;;;;5135184;27;19908;-70
2022/09/26 04:15:08;;;;;;;;;;;17.50;68.20;;;;;;5135182;27;19903;-70
2022/09/26 04:17:34;;;;;;;;;;;17.40;68.10;;;;;;5134949;27;19949;-70
2022/09/26 04:20:00;;;;;;;;;;;17.40;68.10;;;;;;5134963;27;20315;-70
2022/09/26 04:22:26;;;;;;;;;;;17.40;68.10;;;;;;5134725;27;20281;-70
2022/09/26 04:24:52;;;;;;;;;;;17.40;68.10;;;;;;5134737;27;19907;-70
2022/09/26 04:27:18;;;;;;;;;;;17.40;68.10;;;;;;5116279;27;19903;-70
2022/09/26 04:29:44;;;;;;;;;;;17.40;68.20;;;;;;5134588;27;19951;-70
2022/09/26 04:32:10;;;;;;;;;;;17.40;68.20;;;;;;5134393;27;20346;-71
2022/09/26 04:34:38;;;;;;;;;;;17.40;68.10;;;;;;5133854;28;19907;-70
2022/09/26 04:37:04;;;;;;;;;;;17.40;68.10;;;;;;5133620;28;19964;-70
2022/09/26 04:39:29;;;;;;;;;;;17.40;68.10;;;;;;5133743;28;19998;-70
2022/09/26 04:41:56;;;;;;;;;;;17.40;68.10;;;;;;5133696;28;19955;-70
2022/09/26 04:44:21;;;;;;;;;;;17.40;68.00;;;;;;5133703;28;20357;-70
2022/09/26 04:46:47;;;;;;;;;;;17.40;68.00;;;;;;5133629;28;19911;-70
2022/09/26 04:49:13;;;;;;;;;;;17.30;67.80;;;;;;5133533;28;19903;-70
2022/09/26 04:51:38;;;;;;;;;;;17.30;67.70;;;;;;5133607;28;20286;-70
2022/09/26 04:54:04;;;;;;;;;;;17.30;67.50;;;;;;5133462;28;19904;-70
2022/09/26 04:56:30;;;;;;;;;;;17.20;67.30;;;;;;5133379;28;19956;-70
2022/09/26 04:58:57;;;;;;;;;;;17.10;67.30;;;;;;5115177;28;20278;-70
2022/09/26 05:01:23;;;;;;;;;;;17.00;67.10;;;;;;5133208;27;19970;-70
2022/09/26 05:03:48;;;;;;;;;;;16.90;67.10;;;;;;5133273;28;20319;-70
2022/09/26 05:06:16;;;;;;;;;;;16.90;67.20;;;;;;5133307;28;20003;-70
2022/09/26 05:08:45;;;;;;;;;;;16.80;67.20;;;;;;5133580;28;19994;-70
2022/09/26 05:11:11;;;;;;;;;;;16.70;67.30;;;;;;5132026;27;20035;-69
2022/09/26 05:13:37;;;;;;;;;;;16.60;67.40;;;;;;5133321;28;19908;-69
2022/09/26 05:16:05;;;;;;;;;;;16.60;67.50;;;;;;5133225;28;19904;-70
2022/09/26 05:18:31;;;;;;;;;;;16.60;67.70;;;;;;5133134;28;19928;-70
2022/09/26 05:20:57;;;;;;;;;;;16.50;67.80;;;;;;5133068;28;19907;-70
2022/09/26 05:26:18;;;;;;;;;;;16.40;67.90;;;;;;5133658;28;20274;-70
2022/09/26 05:28:48;;;;;;;;;;;16.40;68.00;;;;;;5133172;27;19932;-70
2022/09/26 05:31:15;;;;;;;;;;;16.40;68.20;;;;;;5133123;28;19955;-70
2022/09/26 05:33:41;;;;;;;;;;;16.40;68.50;;;;;;5089248;28;1247581;-70
2022/09/26 05:36:07;;;;;;;;;;;16.40;68.70;;;;;;5133809;28;20376;-70
2022/09/26 05:38:33;;;;;;;;;;;16.40;69.00;;;;;;5133874;28;19918;-70
2022/09/26 05:40:59;;;;;;;;;;;16.50;69.20;;;;;;5133916;28;20362;-70
2022/09/26 05:43:26;;;;;;;;;;;16.50;69.20;;;;;;5133938;28;19913;-70
2022/09/26 05:45:58;;;;;;;;;;;16.60;69.30;;;;;;5133735;28;19942;-70
2022/09/26 05:48:28;;;;;;;;;;;16.60;69.30;;;;;;5133826;28;20341;-70
2022/09/26 05:50:54;;;;;;;;;;;16.70;69.30;;;;;;5133676;28;19904;-70
2022/09/26 05:53:20;;;;;;;;;;;16.70;69.20;;;;;;5138697;27;19951;-70
2022/09/26 05:55:49;;;;;;;;;;;16.70;69.10;;;;;;5125471;27;19918;-70
2022/09/26 05:58:14;;;;;;;;;;;16.80;69.30;;;;;;5142929;27;19910;-69
2022/09/26 06:00:40;;;;;;;;;;;16.90;69.50;;;;;;5142120;27;19930;-70
2022/09/26 06:03:05;;;;;;;;;;;16.90;69.50;;;;;;5141793;27;20282;-70
2022/09/26 06:05:32;;;;;;;;;;;17.00;69.60;;;;;;5143314;27;19947;-70
2022/09/26 06:07:58;;;;;;;;;;;17.10;69.70;;;;;;5143292;27;19910;-70
2022/09/26 06:10:24;;;;;;;;;;;17.20;69.60;;;;;;5123072;27;19904;-70
2022/09/26 06:12:50;;;;;;;;;;;17.20;69.60;;;;;;5143473;27;19907;-70
2022/09/26 06:15:16;;;;;;;;;;;17.40;69.60;;;;;;5130763;27;19938;-70
2022/09/26 06:17:41;;;;;;;;;;;17.40;69.50;;;;;;5154353;27;19903;-70
2022/09/26 06:20:08;;;;;;;;;;;17.50;69.50;;;;;;5154378;27;19910;-71
2022/09/26 06:22:40;;;;;;;;;;;17.50;69.30;;;;;;5156750;27;20258;-70
2022/09/26 06:25:06;;;;;;;;;;;17.70;69.30;;;;;;5158108;27;19907;-71
2022/09/26 06:27:37;;;;;;;;;;;17.70;69.10;;;;;;5158115;27;19907;-70
2022/09/26 06:30:04;;;;;;;;;;;17.80;68.80;;;;;;5137333;27;19986;-71
2022/09/26 06:32:30;;;;;;;;;;;17.80;68.90;;;;;;5137096;27;19912;-69
2022/09/26 06:34:55;;;;;;;;;;;17.90;69.00;;;;;;5137020;27;19995;-70
2022/09/26 06:37:22;;;;;;;;;;;18.00;69.20;;;;;;5137000;27;19903;-70
2022/09/26 06:39:47;;;;;;;;;;;18.00;69.10;;;;;;5137030;27;19910;-69
2022/09/26 06:42:13;;;;;;;;;;;18.10;69.00;;;;;;5137069;27;20278;-70
2022/09/26 06:44:39;;;;;;;;;;;18.20;68.80;;;;;;5137040;27;19910;-69
2022/09/26 06:47:04;;;;;;;;;;;18.20;68.60;;;;;;5136965;27;19914;-70
2022/09/26 06:49:30;;;;;;;;;;;18.30;68.40;;;;;;5137647;27;20270;-68
2022/09/26 06:51:55;;;;;;;;;;;18.30;68.30;;;;;;5148798;27;19907;-68
2022/09/26 06:54:21;;;;;;;;;;;18.30;68.30;;;;;;5157515;27;19910;-68
2022/09/26 06:56:47;;;;;;;;;;;18.40;68.10;;;;;;5138887;27;19954;-68
2022/09/26 06:59:15;;;;;;;;;;;18.40;67.70;;;;;;5156529;27;19907;-68
2022/09/26 07:01:43;;;;;;;;;;;18.40;67.30;;;;;;5142145;27;20336;-68
2022/09/26 07:04:08;;;;;;;;;;;18.40;67.00;;;;;;5136487;27;19904;-68
2022/09/26 07:06:35;;;;;;;;;;;18.40;66.80;;;;;;5136365;27;20467;-68
2022/09/26 07:09:01;;;;;;;;;;;18.30;66.60;;;;;;5118042;27;19904;-68
2022/09/26 07:11:27;;;;;;;;;;;18.30;66.70;;;;;;5117961;27;19949;-68
2022/09/26 07:13:53;;;;;;;;;;;18.30;66.80;;;;;;5136258;27;19904;-68
2022/09/26 07:16:18;;;;;;;;;;;18.40;66.80;;;;;;5140000;27;19916;-68
2022/09/26 07:18:45;;;;;;;;;;;18.40;66.90;;;;;;5136261;27;19904;-68
2022/09/26 07:21:11;;;;;;;;;;;18.40;66.90;;;;;;5136308;27;19911;-68
2022/09/26 07:23:36;;;;;;;;;;;18.40;66.90;;;;;;5136088;27;19910;-68
2022/09/26 07:26:02;;;;;;;;;;;18.40;66.80;;;;;;5136099;27;19903;-68
2022/09/26 07:28:29;;;;;;;;;;;18.50;66.70;;;;;;5135976;27;20278;-68
2022/09/26 07:30:56;;;;;;;;;;;18.40;66.40;;;;;;5136337;27;20424;-68
2022/09/26 07:33:21;;;;;;;;;;;18.40;66.30;;;;;;5134728;27;19936;-68
2022/09/26 07:35:47;;;;;;;;;;;18.50;66.70;;;;;;5141252;27;19972;-68
2022/09/26 07:38:13;;;;;;;;;;;18.50;66.50;;;;;;5137876;27;20320;-68
2022/09/26 07:40:39;;;;;;;;;;;18.50;66.40;;;;;;5156557;27;19948;-68
2022/09/26 07:43:05;;;;;;;;;;;18.60;66.70;;;;;;5156484;27;19928;-68
2022/09/26 07:50:59;;;;;;;;;;;19.00;68.10;;;;;;5154689;27;19926;-68
2022/09/26 07:53:25;;;;;;;;;;;19.30;68.10;;;;;;5148295;27;19911;-68
2022/09/26 07:56:09;;;;;;;;;;;19.40;67.40;;;;;;5139208;27;20342;-68
2022/09/26 07:58:37;;;;;;;;;;;19.60;66.80;;;;;;5146935;27;19907;-69
2022/09/26 08:01:03;;;;;;;;;;;19.80;66.20;;;;;;5135397;27;20002;-68
2022/09/26 08:03:29;;;;;;;;;;;19.90;65.80;;;;;;5150568;27;19942;-68
2022/09/26 08:05:57;;;;;;;;;;;20.00;65.80;;;;;;5155954;27;19911;-68
2022/09/26 08:08:23;;;;;;;;;;;20.20;65.80;;;;;;5156068;27;19946;-68
2022/09/26 08:10:48;;;;;;;;;;;20.30;64.90;;;;;;5155381;27;20302;-69
2022/09/26 08:13:14;;;;;;;;;;;20.40;64.10;;;;;;5137379;27;19910;-69
2022/09/26 08:15:39;;;;;;;;;;;20.30;63.80;;;;;;5140272;27;19911;-69
2022/09/26 08:18:05;;;;;;;;;;;20.30;63.80;;;;;;5121783;27;20362;-68
2022/09/26 08:20:31;;;;;;;;;;;20.30;63.90;;;;;;5155724;27;19903;-69
2022/09/26 08:22:56;;;;;;;;;;;20.30;63.50;;;;;;5147617;27;19919;-69
2022/09/26 08:25:22;;;;;;;;;;;20.30;63.60;;;;;;5134936;27;19928;-68
2022/09/26 08:27:49;;;;;;;;;;;20.30;63.80;;;;;;5134935;27;19953;-69
2022/09/26 08:30:14;;;;;;;;;;;20.30;64.40;;;;;;5134632;27;20341;-68
2022/09/26 08:32:40;;;;;;;;;;;20.30;63.60;;;;;;5116116;27;19915;-69
2022/09/26 08:35:06;;;;;;;;;;;20.40;64.30;;;;;;5137461;27;20371;-70
2022/09/26 08:37:32;;;;;;;;;;;20.40;64.10;;;;;;5138480;27;19926;-70
2022/09/26 08:39:59;;;;;;;;;;;20.40;64.50;;;;;;5154363;27;19903;-68
2022/09/26 08:42:33;;;;;;;;;;;20.60;64.70;;;;;;5136552;27;19911;-68
2022/09/26 08:47:42;;;;;;;10.75;7.07;;;20.80;63.60;;;;;;5130048;27;20118;-73
2022/09/26 08:50:47;;;;;;;9.02;6.28;;;21.00;61.30;;;;;;5131004;28;20027;-72
2022/09/26 08:53:22;;;;;;;10.32;6.68;;;21.10;62.00;;;;;;5120371;28;20367;-71
2022/09/26 08:55:49;;;;;;;10.90;6.88;;;21.10;59.90;;;;;;5110353;28;20032;-71
2022/09/26 08:58:20;;;;;;;9.07;7.05;;;21.10;59.50;;;;;;5114177;28;20018;-71
2022/09/26 09:00:50;;;;;;;9.52;6.45;;;21.10;58.20;;;;;;5117140;28;20081;-71
2022/09/26 09:03:23;;;;;;;8.73;7.43;;;21.20;58.90;;;;;;5111004;28;20443;-72
2022/09/26 09:06:14;;;;;;;8.45;6.28;;;21.10;58.20;;;;;;5124186;28;20087;-71
2022/09/26 09:08:41;;;;;;;8.85;6.82;;;21.20;58.30;;;;;;5107076;28;20032;-71
2022/09/26 09:11:51;;;;;;;10.60;7.03;;;21.30;58.70;;;;;;5110900;28;20526;-72
2022/09/26 09:14:39;;;;;;;9.13;6.10;;;21.30;57.50;;;;;;5099608;28;20048;-71
2022/09/26 09:17:15;;;;;;;7.90;6.10;;;21.40;58.00;;;;;;5109918;28;20103;-72
2022/09/26 09:19:59;;;;;;;10.85;6.38;;;21.40;57.10;;;;;;5111014;28;20021;-72
2022/09/26 09:23:06;;;;;;;9.73;6.35;;;21.40;58.20;;;;;;5102618;28;20036;-71
2022/09/26 09:25:40;;;;;;;6.88;5.72;;;21.30;57.70;;;;;;5125429;27;20423;-72
2022/09/26 09:28:24;;;;;;;6.22;5.55;;;21.30;57.60;;;;;;5110166;28;20043;-72
2022/09/26 09:31:00;;;;;;;8.25;6.10;;;21.30;58.10;;;;;;5120816;28;20051;-71
2022/09/26 09:33:36;;;;;;;8.25;6.00;;;21.30;57.40;;;;;;5089277;28;20024;-71
2022/09/26 09:36:13;;;;;;;9.27;6.43;;;21.20;57.10;;;;;;5099800;28;20020;-72
2022/09/26 09:38:46;;;;;;;6.30;5.63;;;21.20;56.50;;;;;;5108397;28;20039;-71
2022/09/26 09:41:17;;;;;;;10.40;5.95;;;21.20;57.70;;;;;;5116688;28;20469;-71
2022/09/26 09:44:01;;;;;;;8.32;5.93;;;21.20;58.70;;;;;;5115952;28;20055;-71
2022/09/26 09:46:31;;;;;;;8.73;5.82;;;21.20;57.20;;;;;;5112530;28;20048;-72
2022/09/26 09:49:21;;;;;;;11.45;5.43;;;21.30;57.80;;;;;;5109149;28;20047;-71
2022/09/26 09:52:05;;;;;;;7.47;5.65;;;21.40;58.90;;;;;;5097060;28;20016;-71
2022/09/26 09:54:48;;;;;;;6.88;5.45;;;21.50;57.90;;;;;;5108207;28;20538;-72
2022/09/26 09:57:44;;;;;;;6.55;5.78;;;21.60;57.20;;;;;;5092145;28;20035;-72
2022/09/26 10:00:17;;;;;;;6.78;4.82;;;21.60;56.70;;;;;;5098624;28;20032;-70
2022/09/26 10:02:46;;;;;;;5.25;4.65;;;21.80;57.80;;;;;;5094229;28;20081;-72
2022/09/26 10:05:45;;;;;;;7.10;5.70;;;21.80;56.90;;;;;;5096217;28;20470;-72
2022/09/26 10:08:20;;;;;;;6.88;5.15;;;21.90;55.90;;;;;;5094805;28;20024;-72
2022/09/26 10:11:06;;;;;;;7.25;4.97;;;22.00;54.80;;;;;;5095407;28;20016;-71
2022/09/26 10:13:34;;;;;;;6.35;5.18;;;22.00;54.30;;;;;;5106944;28;20018;-72
2022/09/26 10:16:04;;;;;;;4.70;4.22;;;21.90;53.60;;;;;;5111847;28;20500;-73
2022/09/26 10:18:30;;;;;;;6.75;4.90;;;21.90;54.70;;;;;;5091772;28;20028;-72
2022/09/26 10:21:07;;;;;;;10.48;4.93;;;21.80;56.00;;;;;;5086631;28;20020;-72
2022/09/26 10:23:39;;;;;;;7.10;4.40;;;21.90;53.90;;;;;;5090788;28;20024;-75
2022/09/26 10:26:10;;;;;;;5.03;4.53;;;21.90;54.80;;;;;;5092126;28;20029;-74
2022/09/26 10:28:46;;;;;;;6.43;4.78;;;22.00;54.60;;;;;;5093392;28;20478;-73
2022/09/26 10:31:28;;;;;;;5.13;3.97;;;22.10;56.50;;;;;;5074536;28;20017;-74
2022/09/26 10:34:04;;;;;;;4.72;3.90;;;22.30;56.20;;;;;;5087304;28;20055;-73
2022/09/26 10:36:33;;;;;;;6.93;4.07;;;22.50;57.30;;;;;;5091266;28;20077;-73
2022/09/26 10:42:01;;;;;;;5.35;4.05;;;22.70;52.80;;;;;;5088957;28;20054;-73
2022/09/26 10:44:35;;;;;;;5.03;3.80;;;22.80;55.00;;;;;;5092793;28;20020;-75
2022/09/26 10:47:09;;;;;;;;;;;22.90;54.00;;;;;;5093206;28;20497;-74
2022/09/26 10:49:49;;;;;;;4.35;3.40;;;23.00;56.00;;;;;;5094004;28;19991;-74
2022/09/26 10:52:22;;;;;;;8.15;3.35;;;23.00;51.00;;;;;;5082261;28;20105;-73
2022/09/26 10:55:43;;;;;;;3.95;3.05;;;22.90;50.30;;;;;;5094538;28;20024;-73
2022/09/26 10:58:17;;;;;;;3.67;2.83;;;22.80;51.10;;;;;;5090643;28;20119;-74
2022/09/26 11:00:45;;;;;;;4.20;3.13;;;22.70;52.10;;;;;;5095733;28;20099;-74
2022/09/26 11:03:14;;;;;;;5.00;3.53;;;22.60;50.80;;;;;;5094032;28;20153;-74
2022/09/26 11:06:00;;;;;;;4.95;3.47;;;22.50;51.50;;;;;;5092676;28;20028;-75
2022/09/26 11:08:28;;;;;;;5.78;3.28;;;22.40;50.80;;;;;;5107117;28;20099;-75
2022/09/26 11:10:59;;;;;;;3.53;2.85;;;22.20;50.30;;;;;;5096006;28;20024;-75
2022/09/26 11:13:28;;;;;;;4.07;3.15;;;22.00;51.50;;;;;;5093728;28;20492;-75
2022/09/26 11:16:01;;;;;;;4.03;3.08;;;21.80;51.30;;;;;;5094024;28;20111;-73
2022/09/26 11:18:43;;;;;;;5.03;3.38;;;21.70;51.90;;;;;;5093793;28;20020;-73
2022/09/26 11:21:30;;;;;;;4.90;3.17;;;21.60;51.90;;;;;;5093004;28;20035;-75
2022/09/26 11:24:02;;;;;;;5.68;3.25;;;21.50;52.00;;;;;;5102487;28;20020;-75
2022/09/26 11:26:40;;;;;;;3.78;3.00;;;21.50;53.10;;;;;;5114096;28;20062;-76
2022/09/26 11:29:12;;;;;;;5.75;2.60;;;21.40;54.50;;;;;;5095954;28;20489;-74
2022/09/26 11:31:42;;;;;;;3.55;2.80;;;21.40;55.40;;;;;;5093687;28;20393;-75
2022/09/26 11:34:15;;;;;;;4.50;3.00;;;21.40;55.50;;;;;;5092305;28;20470;-75
2022/09/26 11:37:06;;;;;;;7.32;2.97;;;21.30;54.70;;;;;;5093603;28;20485;-75
2022/09/26 11:39:50;;;;;;;3.88;3.05;;;21.20;55.90;;;;;;5096833;28;20015;-75
2022/09/26 11:42:27;;;;;;;5.50;3.80;;;21.20;56.00;;;;;;5113872;28;20491;-74
2022/09/26 11:45:00;;;;;;;4.75;3.55;;;21.10;54.60;;;;;;5113693;28;20028;-73
2022/09/26 11:47:50;;;;;;;4.70;3.88;;;21.00;54.90;;;;;;5110265;28;20019;-75
2022/09/26 11:50:26;;;;;;;4.45;3.42;;;20.90;54.80;;;;;;5092243;28;20059;-75
2022/09/26 11:52:55;;;;;;;4.22;3.33;;;20.80;55.80;;;;;;5085592;28;20115;-75
2022/09/26 11:55:44;;;;;;;7.78;3.63;;;20.70;56.20;;;;;;5098846;27;20038;-78
2022/09/26 11:58:18;;;;;;;5.25;3.75;;;20.60;56.40;;;;;;5049992;28;20497;-75
2022/09/26 12:00:54;;;;;;;5.40;3.67;;;20.60;56.70;;;;;;5050204;28;20033;-77
2022/09/26 12:03:31;;;;;;;7.70;3.67;;;20.50;57.10;;;;;;5039740;28;20044;-75
2022/09/26 12:06:21;;;;;;;4.93;4.00;;;20.50;57.70;;;;;;5047153;28;20048;-74
2022/09/26 12:09:14;;;;;;;4.28;3.50;;;20.40;57.70;;;;;;5046861;28;20809;-75
2022/09/26 12:12:00;;;;;;;4.72;3.78;;;20.40;58.30;;;;;;5034011;28;20025;-74
2022/09/26 12:14:26;;;;;;;7.80;4.20;;;20.40;58.80;;;;;;5046813;28;20090;-76
2022/09/26 12:17:24;;;;;;;4.82;4.00;;;20.50;58.80;;;;;;5034437;28;20033;-76
2022/09/26 12:20:01;;;;;;;7.10;3.80;;;20.50;58.50;;;;;;5037888;28;20417;-76
2022/09/26 12:22:57;;;;;;;4.90;4.00;;;20.60;59.00;;;;;;5041524;28;20060;-76
2022/09/26 12:25:29;;;;;;;5.78;4.25;;;20.60;58.90;;;;;;5038644;28;20030;-77
2022/09/26 12:28:15;;;;;;;9.93;4.82;;;20.60;59.50;;;;;;5050102;28;20061;-76
2022/09/26 12:31:31;;;;;;;5.38;3.95;;;20.60;58.40;;;;;;5037665;28;20449;-75
2022/09/26 12:34:54;;;;;;;5.38;4.05;;;20.60;58.90;;;;;;4989434;28;20026;-74
2022/09/26 12:37:44;;;;;;;5.05;4.18;;;20.60;58.10;;;;;;4998191;28;20038;-76
2022/09/26 12:40:09;;;;;;;4.68;3.70;;;20.60;59.10;;;;;;5006719;28;20117;-75
2022/09/26 12:42:47;;;;;;;5.68;4.40;;;20.70;59.70;;;;;;4988736;28;20476;-75
2022/09/26 12:45:30;;;;;;;6.68;3.47;;;20.70;58.70;;;;;;4995601;28;20124;-75
2022/09/26 12:48:20;;;;;;;4.30;3.50;;;20.70;57.90;;;;;;4990326;28;20034;-77
2022/09/26 12:51:04;;;;;;;4.20;3.25;;;20.80;58.00;;;;;;4989969;28;20096;-74
2022/09/26 12:53:35;;;;;;;4.65;3.28;;;20.90;58.50;;;;;;4990760;28;20030;-76
2022/09/26 12:56:09;;;;;;;4.25;2.65;;;21.10;58.50;;;;;;4997593;28;20080;-77
2022/09/26 12:58:59;;;;;;;7.50;2.72;;;21.30;58.20;;;;;;5003159;28;20022;-75
2022/09/26 13:02:03;;;;;;;3.58;2.00;;;21.50;57.90;;;;;;4994843;28;20037;-77
2022/09/26 13:04:35;;;;;;;4.43;2.80;;;21.80;56.60;;;;;;4994426;28;20022;-76
2022/09/26 13:07:26;;;;;;;4.25;2.60;;;22.10;55.90;;;;;;4984984;28;20034;-76
2022/09/26 13:10:07;;;;;;;8.48;2.92;;;22.20;54.50;;;;;;5051838;28;20417;-75
2022/09/26 13:13:23;;;;;;;3.15;2.17;;;22.30;55.10;;;;;;5060820;28;20036;-76
2022/09/26 13:16:12;;;;;;;3.65;1.90;;;22.30;55.80;;;;;;5097981;28;20025;-77
2022/09/26 13:18:52;;;;;;;3.08;2.10;;;22.40;55.70;;;;;;5088776;28;20028;-74
2022/09/26 13:22:02;;;;;;;2.47;2.20;;;22.30;53.80;;;;;;5099634;28;20446;-76
2022/09/26 13:24:43;;;;;;;3.75;1.85;;;22.20;52.90;;;;;;5088126;28;20039;-76
2022/09/26 13:27:21;;;;;;;3.78;2.13;;;22.10;54.50;;;;;;5080650;28;20027;-75
2022/09/26 13:29:59;;;;;;;2.35;1.98;;;22.00;53.20;;;;;;5091886;28;20024;-76
2022/09/26 13:32:34;;;;;;;2.40;2.13;;;21.90;54.10;;;;;;5093071;28;20028;-78
2022/09/26 13:35:23;;;;;;;3.97;2.28;;;21.90;54.30;;;;;;5094888;28;20469;-75
2022/09/26 13:37:52;;;;;;;2.63;1.83;;;21.90;54.60;;;;;;5098969;28;20036;-75
2022/09/26 13:40:21;;;;;;;2.47;1.77;;;22.00;55.20;;;;;;5098333;28;20021;-77
2022/09/26 13:42:55;;;;;;;5.25;2.13;;;22.00;54.10;;;;;;5096754;28;20020;-78
2022/09/26 13:45:35;;;;;;;6.88;2.47;;;22.10;53.20;;;;;;5095662;28;20047;-82
2022/09/26 13:48:38;;;;;;;1.95;1.75;;;22.20;53.90;;;;;;5095920;28;20039;-83
2022/09/26 13:51:17;;;;;;;1.77;1.67;;;22.20;54.10;;;;;;5089371;28;20028;-81
2022/09/26 13:54:03;;;;;;;3.00;2.08;;;22.30;54.60;;;;;;5094608;28;20051;-82
2022/09/26 13:56:46;;;;;;;3.28;2.33;;;22.30;54.40;;;;;;5094807;28;20154;-84
2022/09/26 13:59:16;;;;;;;2.10;1.90;;;22.30;53.10;;;;;;5096195;28;20027;-84
2022/09/26 14:02:18;;;;;;;2.03;1.80;;;22.40;53.20;;;;;;5095593;28;20047;-81
2022/09/26 14:04:46;;;;;;;2.25;1.85;;;22.30;53.60;;;;;;5095917;28;20084;-79
2022/09/26 14:10:07;;;;;;;3.15;1.92;;;22.50;55.50;;;;;;5097349;28;20046;-87
2022/09/26 14:13:09;;;;;;;2.25;1.40;;;22.60;54.80;;;;;;5097028;28;20465;-83
2022/09/26 14:15:59;;;;;;;4.32;1.80;;;22.80;54.60;;;;;;5095311;28;20024;-81
2022/09/26 14:18:31;;;;;;;2.28;1.55;;;22.90;53.50;;;;;;5099842;28;20024;-84
2022/09/26 14:21:22;;;;;;;2.20;1.73;;;22.90;52.60;;;;;;5097362;28;20052;-83
2022/09/26 14:23:49;;;;;;;1.75;1.65;;;22.90;52.50;;;;;;5086473;28;20032;-86
2022/09/26 14:26:42;;;;;;;4.90;1.55;;;22.80;52.80;;;;;;5096195;28;20028;-82
2022/09/26 14:29:27;;;;;;;2.67;1.65;;;22.80;53.50;;;;;;5095785;28;20107;-85